Kingsteignton, United Kingdom
Current Conditions -  °F | °C
As of 1:20 PM on Thursday 27 Nov 2014 (Local Time) from EGTE Reporting Station
Haze Haze  
Wind Chill: 38°   Ceiling: 2600
Heat Index: 41°   Visibility: 2.8mi
Dew Point: 41°   Wind: 5mph
Humidity: 100%   Direction: 330°NNW
Pressure: 29.53"   Gusts: NA
Location:  50.55°N, 3.58°W
Report Text: EGTE 271320Z 33004KT 220V020 4500 BR FEW002 SCT010 BKN026 05/05 Q1000
Loading
Personal Weather Stations






























Interactive Weather Map New forecast layout! Learn more

10-Day Weather Forecast

Advertisements
Track Severe Weather on mobile